Time;durP1;ratioP1;P1;durP2;ratioP2;P2;SDS_P1;SDS_P2;PMS_P1;PMS_P2;Temp;Humidity;BMP_temperature;BMP_pressure;BME280_temperature;BME280_humidity;BME280_pressure;Samples;Min_cycle;Max_cycle;Signal;HPM_P1;HPM_P2
2021/03/23 00:02:00;;;;;;;39.57;16.03;;;;;;;0.25;60.26;99008.44;115090;1199;103322;-80
2021/03/23 00:04:31;;;;;;;40.60;18.07;;;;;;;0.25;59.85;99000.59;114998;1199;102960;-78
2021/03/23 00:06:58;;;;;;;40.80;18.40;;;;;;;0.26;60.60;98999.69;115011;1199;103207;-78
2021/03/23 00:09:25;;;;;;;41.60;17.15;;;;;;;0.29;60.48;99003.98;114942;1200;103108;-79
2021/03/23 00:11:52;;;;;;;37.50;16.40;;;;;;;0.32;60.12;99003.02;114861;1199;103081;-78
2021/03/23 00:14:23;;;;;;;38.33;17.07;;;;;;;0.35;60.22;99000.30;114974;1200;103104;-80
2021/03/23 00:16:50;;;;;;;43.07;18.20;;;;;;;0.36;60.18;99007.25;114993;1199;103040;-80
2021/03/23 00:19:17;;;;;;;38.97;17.93;;;;;;;0.37;60.15;99006.34;115088;1198;103030;-80
2021/03/23 00:21:45;;;;;;;43.50;18.50;;;;;;;0.36;60.39;99002.02;115195;1199;103056;-81
2021/03/23 00:24:13;;;;;;;41.80;19.10;;;;;;;0.35;60.11;98997.69;115012;1200;103191;-80
2021/03/23 00:26:41;;;;;;;41.10;18.27;;;;;;;0.36;59.97;99005.50;114851;1199;103155;-80
2021/03/23 00:29:14;;;;;;;41.63;19.70;;;;;;;0.37;60.64;99001.11;114996;1200;103031;-80
2021/03/23 00:31:41;;;;;;;44.53;17.67;;;;;;;0.37;60.67;99003.73;115051;1199;103040;-80
2021/03/23 00:34:10;;;;;;;39.50;17.20;;;;;;;0.38;60.39;99008.05;114940;1200;103146;-80
2021/03/23 00:36:43;;;;;;;42.57;19.13;;;;;;;0.36;60.14;99002.89;115042;1199;103069;-78
2021/03/23 00:39:15;;;;;;;42.47;18.40;;;;;;;0.34;60.12;98998.59;115615;1199;102872;-78
2021/03/23 00:41:43;;;;;;;38.77;17.90;;;;;;;0.35;60.03;99005.53;115659;1198;102743;-78
2021/03/23 00:44:14;;;;;;;39.70;18.03;;;;;;;0.36;60.85;99007.25;115026;1198;103075;-79
2021/03/23 00:46:41;;;;;;;42.17;18.80;;;;;;;0.34;60.88;99011.67;114815;1200;103131;-78
2021/03/23 00:49:09;;;;;;;43.47;18.43;;;;;;;0.32;60.59;99009.13;115077;1199;103072;-77
2021/03/23 00:51:36;;;;;;;39.97;17.47;;;;;;;0.31;60.67;99019.62;115218;1200;101693;-77
2021/03/23 00:54:05;;;;;;;40.13;16.77;;;;;;;0.29;60.47;99007.44;115012;1198;103002;-78
2021/03/23 00:56:32;;;;;;;44.47;18.43;;;;;;;0.28;60.36;99016.19;114959;1199;103060;-77
2021/03/23 00:58:59;;;;;;;43.27;17.33;;;;;;;0.29;60.49;99015.29;115029;1199;103059;-78
2021/03/23 01:01:26;;;;;;;38.37;17.97;;;;;;;0.33;60.49;99020.42;115038;1199;103098;-79
2021/03/23 01:04:02;;;;;;;38.70;16.93;;;;;;;0.30;60.78;99013.55;115139;1200;103030;-78
2021/03/23 01:06:33;;;;;;;40.10;19.50;;;;;;;0.29;60.94;99007.44;114880;1199;103033;-77
2021/03/23 01:09:00;;;;;;;42.47;19.33;;;;;;;0.30;60.85;99013.55;115556;1199;101515;-78
2021/03/23 01:11:27;;;;;;;40.10;18.33;;;;;;;0.29;61.00;99009.22;114849;1199;103069;-78
2021/03/23 01:13:59;;;;;;;42.55;19.10;;;;;;;0.27;61.02;99006.63;114891;1200;103124;-78
2021/03/23 01:16:26;;;;;;;42.77;19.17;;;;;;;0.28;60.78;99008.34;115091;1199;103492;-79
2021/03/23 01:18:58;;;;;;;42.60;18.90;;;;;;;0.28;60.88;99008.34;114955;1199;103133;-79
2021/03/23 01:21:26;;;;;;;49.35;20.70;;;;;;;0.26;61.10;99017.16;114928;1199;103104;-79
2021/03/23 01:23:54;;;;;;;39.80;18.23;;;;;;;0.23;60.86;99005.02;115065;1199;103149;-79
2021/03/23 01:26:21;;;;;;;38.95;19.25;;;;;;;0.24;60.61;99004.11;115000;1200;103574;-78
2021/03/23 01:28:48;;;;;;;45.83;20.60;;;;;;;0.23;60.86;99006.78;115160;1200;103197;-79
2021/03/23 01:31:19;;;;;;;44.90;20.60;;;;;;;0.20;60.57;99001.65;114950;1200;103076;-77
2021/03/23 01:33:47;;;;;;;43.37;20.63;;;;;;;0.20;60.93;99001.65;115067;1200;103037;-78
2021/03/23 01:36:14;;;;;;;44.00;20.23;;;;;;;0.18;61.27;99001.71;114981;1200;103134;-78
2021/03/23 01:38:40;;;;;;;44.07;20.10;;;;;;;0.19;61.12;98992.09;115017;1199;103132;-78
2021/03/23 01:41:12;;;;;;;37.80;17.05;;;;;;;0.18;61.37;98992.99;115219;1199;103162;-77
2021/03/23 01:43:38;;;;;;;38.90;18.70;;;;;;;0.18;60.70;98988.63;115280;1199;103033;-76
2021/03/23 01:46:43;;;;;;;42.90;19.80;;;;;;;0.20;60.98;98989.44;115102;1200;103136;-76
2021/03/23 01:49:50;;;;;;;41.67;19.10;;;;;;;0.19;60.87;98990.34;115092;1200;103037;-76
2021/03/23 01:52:23;;;;;;;46.73;21.80;;;;;;;0.23;61.43;98985.86;114952;1199;103570;-77
2021/03/23 01:55:02;;;;;;;44.13;19.15;;;;;;;0.22;61.67;98987.60;115034;1200;103059;-77
2021/03/23 01:57:35;;;;;;;44.93;20.90;;;;;;;0.23;61.10;98983.24;115005;1199;103153;-77
2021/03/23 02:00:08;;;;;;;;;;;;;;;0.24;61.01;98979.72;115515;1206;101858;-77
2021/03/23 02:02:39;;;;;;;42.97;19.10;;;;;;;0.23;61.65;98981.47;115025;1199;103116;-78
2021/03/23 02:05:32;;;;;;;45.33;19.70;;;;;;;0.23;61.29;98976.23;115089;1200;103031;-78
2021/03/23 02:08:06;;;;;;;43.87;20.27;;;;;;;0.25;61.21;98974.42;115116;1199;103112;-77
2021/03/23 02:10:38;;;;;;;44.07;20.40;;;;;;;0.25;60.93;98977.04;115100;1200;103179;-76
2021/03/23 02:13:11;;;;;;;43.50;18.60;;;;;;;0.25;61.48;98982.27;115014;1200;103136;-77
2021/03/23 02:15:37;;;;;;;40.20;18.40;;;;;;;0.27;61.79;98977.01;115056;1200;103043;-76
2021/03/23 02:18:10;;;;;;;41.60;18.50;;;;;;;0.27;61.50;98972.62;114897;1200;103079;-76
2021/03/23 02:20:59;;;;;;;42.38;18.95;;;;;;;0.29;61.16;98980.44;115071;1200;103169;-76
2021/03/23 02:23:34;;;;;;;41.77;18.83;;;;;;;0.30;61.38;98976.91;115037;1199;103056;-76
2021/03/23 02:26:08;;;;;;;40.73;18.80;;;;;;;0.32;61.19;98982.09;115082;1199;104803;-77
2021/03/23 02:28:53;;;;;;;;;;;;;;;0.32;61.71;98985.57;115070;1206;103686;-78
2021/03/23 02:31:28;;;;;;;40.37;18.20;;;;;;;0.31;61.33;98977.75;115026;1199;103136;-77
2021/03/23 02:34:02;;;;;;;39.40;17.30;;;;;;;0.32;61.53;98976.85;114895;1200;103054;-76
2021/03/23 02:36:34;;;;;;;45.15;20.00;;;;;;;0.33;61.69;98976.82;115051;1200;103149;-77
2021/03/23 02:39:06;;;;;;;41.50;20.00;;;;;;;0.34;61.56;98981.14;115292;1199;103059;-77
2021/03/23 02:41:33;;;;;;;43.50;20.10;;;;;;;0.33;61.41;98974.20;114928;1199;103148;-78
2021/03/23 02:44:00;;;;;;;41.90;18.70;;;;;;;0.36;61.77;98975.84;115057;1199;103076;-77
2021/03/23 02:46:28;;;;;;;44.73;19.90;;;;;;;0.37;61.62;98980.17;115056;1198;103286;-77
2021/03/23 02:49:00;;;;;;;42.97;20.60;;;;;;;0.36;61.53;98984.57;115173;1199;103149;-77
2021/03/23 02:51:33;;;;;;;50.43;20.93;;;;;;;0.36;61.21;98974.11;115428;1200;103031;-77
2021/03/23 02:54:01;;;;;;;41.73;18.83;;;;;;;0.37;61.73;98978.44;115042;1200;103509;-76
2021/03/23 02:56:28;;;;;;;46.13;19.83;;;;;;;0.37;61.10;98972.33;115031;1200;103066;-77
2021/03/23 02:58:57;;;;;;;45.90;20.57;;;;;;;0.34;61.92;98965.45;115031;1199;103181;-77
2021/03/23 03:01:26;;;;;;;42.90;18.80;;;;;;;0.34;61.71;98970.68;114930;1200;103166;-78
2021/03/23 03:03:54;;;;;;;48.77;22.30;;;;;;;0.33;62.14;98970.71;115217;1200;103130;-76
2021/03/23 03:06:25;;;;;;;48.97;23.03;;;;;;;0.33;61.64;98976.82;115562;1198;103143;-77
2021/03/23 03:08:58;;;;;;;45.35;22.35;;;;;;;0.35;61.45;98975.01;115107;1199;103165;-77
2021/03/23 03:11:25;;;;;;;49.33;22.77;;;;;;;0.36;61.66;98968.00;115063;1199;103217;-77
2021/03/23 03:14:01;;;;;;;47.43;21.40;;;;;;;0.38;61.70;98972.30;115040;1199;103030;-76
2021/03/23 03:16:28;;;;;;;48.17;21.53;;;;;;;0.39;62.12;98970.52;115086;1199;103542;-77
2021/03/23 03:19:00;;;;;;;47.73;21.83;;;;;;;0.40;62.09;98970.48;115134;1200;103046;-78
2021/03/23 03:21:31;;;;;;;45.63;21.70;;;;;;;0.42;61.75;98973.04;115389;1199;103031;-77
2021/03/23 03:23:59;;;;;;;48.40;21.50;;;;;;;0.42;61.71;98966.03;115112;1199;103175;-78
2021/03/23 03:26:26;;;;;;;41.00;19.33;;;;;;;0.41;62.17;98961.70;115040;1199;103175;-78
2021/03/23 03:28:53;;;;;;;46.97;22.27;;;;;;;0.40;61.92;98973.10;115019;1199;103156;-77
2021/03/23 03:31:26;;;;;;;46.15;19.30;;;;;;;0.43;61.95;98978.20;115030;1198;103060;-78
2021/03/23 03:34:00;;;;;;;47.45;22.55;;;;;;;0.43;61.84;98974.75;115043;1198;103089;-75
2021/03/23 03:36:34;;;;;;;48.53;22.53;;;;;;;0.44;61.80;98974.69;115092;1199;103059;-76
2021/03/23 03:39:07;;;;;;;46.35;23.25;;;;;;;0.46;62.04;98979.02;115909;1199;103188;-76
2021/03/23 03:41:35;;;;;;;49.30;23.50;;;;;;;0.46;61.67;98972.03;114911;1199;103085;-75
2021/03/23 03:44:07;;;;;;;44.50;22.23;;;;;;;0.47;62.00;98972.88;115103;1200;103070;-76
2021/03/23 03:46:35;;;;;;;46.03;22.63;;;;;;;0.47;62.03;98975.49;115045;1200;103082;-78
2021/03/23 03:49:03;;;;;;;50.60;23.77;;;;;;;0.44;61.88;98974.69;115121;1198;103076;-78
2021/03/23 03:51:30;;;;;;;51.25;23.85;;;;;;;0.44;61.90;98973.84;114934;1200;103066;-77
2021/03/23 03:53:57;;;;;;;48.60;24.13;;;;;;;0.44;61.88;98969.45;115066;1200;103076;-77
2021/03/23 03:56:24;;;;;;;49.40;25.33;;;;;;;0.44;62.38;98969.45;114968;1200;103073;-77
2021/03/23 03:58:51;;;;;;;50.77;24.40;;;;;;;0.46;62.58;98976.39;114965;1199;103056;-76
2021/03/23 04:01:18;;;;;;;44.85;20.60;;;;;;;0.45;62.29;98975.56;114943;1198;103054;-76
2021/03/23 04:03:46;;;;;;;48.50;25.67;;;;;;;0.45;61.76;98970.32;115017;1200;103137;-77
2021/03/23 04:06:17;;;;;;;59.63;29.07;;;;;;;0.41;61.91;98964.31;115054;1200;103095;-77
2021/03/23 04:08:49;;;;;;;55.45;28.40;;;;;;;0.41;62.28;98972.17;115033;1199;103040;-76
2021/03/23 04:11:15;;;;;;;58.03;29.73;;;;;;;0.42;62.44;98965.19;115123;1198;103136;-76
2021/03/23 04:13:42;;;;;;;58.85;30.95;;;;;;;0.41;62.30;98968.70;115030;1199;103028;-76
2021/03/23 04:16:10;;;;;;;57.57;27.97;;;;;;;0.39;62.38;98966.16;115012;1200;103178;-77
2021/03/23 04:18:41;;;;;;;62.45;30.05;;;;;;;0.40;62.23;98972.23;115040;1200;103129;-77
2021/03/23 04:21:08;;;;;;;63.25;31.65;;;;;;;0.40;62.47;98970.48;115015;1200;103168;-77
2021/03/23 04:23:47;;;;;;;;;;;;;;;0.40;62.32;98973.10;115051;1206;103130;-78
2021/03/23 04:26:18;;;;;;;50.63;22.37;;;;;;;0.39;62.09;98968.77;115028;1198;103181;-78
2021/03/23 04:28:46;;;;;;;65.60;34.00;;;;;;;0.39;62.49;98970.52;114978;1200;103027;-76
2021/03/23 04:31:37;;;;;;;61.80;30.83;;;;;;;0.36;62.23;98968.88;115039;1199;103124;-77
2021/03/23 04:34:12;;;;;;;58.50;29.70;;;;;;;0.34;62.27;98973.30;115089;1199;103175;-78
2021/03/23 04:36:50;;;;;;;61.53;33.20;;;;;;;0.35;62.24;98969.78;115047;1199;103069;-76
2021/03/23 04:39:16;;;;;;;60.80;30.85;;;;;;;0.36;62.74;98973.23;115105;1200;103161;-77
2021/03/23 04:41:43;;;;;;;62.30;31.30;;;;;;;0.37;62.05;98977.56;114984;1200;103216;-77
2021/03/23 04:44:10;;;;;;;66.78;35.00;;;;;;;0.39;62.68;98970.52;114978;1199;103031;-76
2021/03/23 04:46:37;;;;;;;66.60;35.40;;;;;;;0.39;62.22;98970.52;114943;1200;103182;-76
2021/03/23 04:49:04;;;;;;;63.73;32.88;;;;;;;0.39;62.22;98975.75;115077;1199;102992;-77
2021/03/23 04:51:35;;;;;;;59.07;32.20;;;;;;;0.38;62.71;98989.74;114993;1200;103076;-80
2021/03/23 04:54:09;;;;;;;65.23;32.13;;;;;;;0.38;62.74;98988.00;115522;1199;103031;-76
2021/03/23 04:56:42;;;;;;;69.40;33.63;;;;;;;0.41;62.82;98990.48;115070;1199;103522;-72
2021/03/23 04:59:13;;;;;;;66.93;34.23;;;;;;;0.43;62.63;98991.30;115107;1199;103133;-78
2021/03/23 05:01:40;;;;;;;67.23;34.83;;;;;;;0.43;62.53;98979.98;115508;1199;102590;-77
2021/03/23 05:04:18;;;;;;;66.23;33.77;;;;;;;0.44;62.69;98986.93;115014;1200;103034;-75
2021/03/23 05:06:47;;;;;;;71.10;35.10;;;;;;;0.45;62.57;98991.26;114867;1198;103114;-74
2021/03/23 05:09:14;;;;;;;67.30;33.30;;;;;;;0.46;62.60;98982.50;114841;1200;103490;-74
2021/03/23 05:11:41;;;;;;;65.90;30.87;;;;;;;0.48;62.87;98971.97;114920;1199;103096;-79
2021/03/23 05:14:10;;;;;;;69.45;34.33;;;;;;;0.50;62.64;98970.16;115023;1200;103223;-77
2021/03/23 05:16:37;;;;;;;76.55;37.85;;;;;;;0.52;62.91;98976.20;114845;1200;103056;-78
2021/03/23 05:19:04;;;;;;;78.53;37.50;;;;;;;0.54;62.62;98974.39;114909;1199;103095;-75
2021/03/23 05:21:32;;;;;;;69.25;34.65;;;;;;;0.57;62.75;98987.38;114867;1200;103140;-75
2021/03/23 05:24:02;;;;;;;74.85;39.50;;;;;;;0.60;62.74;98976.81;114936;1200;103063;-77
2021/03/23 05:26:30;;;;;;;68.50;34.57;;;;;;;0.60;62.90;98995.13;114966;1200;103203;-77
2021/03/23 05:28:58;;;;;;;58.83;29.13;;;;;;;0.64;62.86;98988.02;115011;1199;103136;-77
2021/03/23 05:31:26;;;;;;;69.97;37.97;;;;;;;0.66;62.65;98976.61;115028;1198;103060;-77
2021/03/23 05:33:55;;;;;;;74.40;33.50;;;;;;;0.68;63.17;98981.77;114954;1198;103197;-75
2021/03/23 05:36:23;;;;;;;72.60;36.43;;;;;;;0.71;62.76;98979.92;114982;1200;103034;-76
2021/03/23 05:38:50;;;;;;;63.90;32.73;;;;;;;0.73;62.85;98980.73;114977;1200;102723;-75
2021/03/23 05:41:35;;;;;;;69.00;35.60;;;;;;;0.78;62.99;98983.19;114896;1200;103249;-76
2021/03/23 05:44:38;;;;;;;73.47;36.17;;;;;;;0.80;62.97;98980.53;114977;1199;103267;-73
2021/03/23 05:47:10;;;;;;;70.43;35.80;;;;;;;0.83;63.26;98994.36;114955;1199;101903;-76
2021/03/23 05:50:00;;;;;;;73.50;36.47;;;;;;;0.84;62.74;98989.96;115012;1200;103056;-75
2021/03/23 05:52:34;;;;;;;72.50;36.80;;;;;;;0.84;63.12;98998.69;114986;1199;103174;-77
2021/03/23 05:55:29;;;;;;;87.60;38.10;;;;;;;0.88;63.02;98999.43;114934;1200;103073;-79
2021/03/23 05:57:58;;;;;;;75.57;35.70;;;;;;;0.91;62.96;98995.87;114964;1199;103031;-79
2021/03/23 06:00:35;;;;;;;76.93;37.30;;;;;;;0.94;63.15;99001.84;114976;1199;103172;-77
2021/03/23 06:03:26;;;;;;;82.47;38.17;;;;;;;0.99;63.17;99009.56;115024;1199;103031;-78
2021/03/23 06:06:03;;;;;;;72.67;35.83;;;;;;;1.02;62.86;99007.67;114948;1200;101936;-78
2021/03/23 06:08:34;;;;;;;76.53;39.50;;;;;;;1.04;63.11;99008.48;114885;1198;103034;-80
2021/03/23 06:11:10;;;;;;;74.33;35.93;;;;;;;1.06;63.19;99004.95;114932;1199;103049;-78
2021/03/23 06:13:52;;;;;;;76.77;36.37;;;;;;;1.09;63.13;99007.47;114893;1199;103070;-80
2021/03/23 06:16:34;;;;;;;69.10;33.40;;;;;;;1.13;63.60;99006.45;115023;1199;103018;-81
2021/03/23 06:19:10;;;;;;;82.80;41.95;;;;;;;1.17;63.22;99001.05;114944;1199;103136;-79
2021/03/23 06:21:51;;;;;;;72.83;38.73;;;;;;;1.21;63.15;98996.57;114947;1200;103073;-80
2021/03/23 06:24:27;;;;;;;72.20;33.83;;;;;;;1.25;63.08;99000.77;114989;1200;103143;-79
2021/03/23 06:27:23;;;;;;;76.20;38.87;;;;;;;1.29;63.10;98991.05;114951;1199;103047;-79
2021/03/23 06:30:02;;;;;;;75.10;37.30;;;;;;;1.33;63.44;98995.27;114990;1198;103075;-79
2021/03/23 06:32:48;;;;;;;73.15;38.25;;;;;;;1.32;63.24;98997.02;115049;1199;103037;-75
2021/03/23 06:35:26;;;;;;;83.93;40.80;;;;;;;1.33;63.45;98990.03;114991;1199;103063;-74
2021/03/23 06:37:53;;;;;;;76.73;38.00;;;;;;;1.35;63.41;98990.83;115036;1199;103059;-79
2021/03/23 06:40:32;;;;;;;75.43;40.20;;;;;;;1.38;63.33;98992.47;114969;1200;103076;-75
2021/03/23 06:43:29;;;;;;;82.60;39.90;;;;;;;1.42;63.53;99004.55;114959;1199;103147;-74
2021/03/23 06:46:22;;;;;;;78.27;39.40;;;;;;;1.43;63.41;98999.24;114982;1199;103060;-71
2021/03/23 06:49:25;;;;;;;76.13;38.30;;;;;;;1.46;63.37;99001.75;114993;1199;103079;-74
2021/03/23 06:51:59;;;;;;;77.23;38.17;;;;;;;1.51;63.51;99000.73;115008;1199;103379;-74
2021/03/23 06:54:29;;;;;;;;;;;;;;;1.52;63.27;99003.31;114977;1206;103086;-74
2021/03/23 06:57:12;;;;;;;73.70;37.40;;;;;;;1.55;63.43;99005.83;114940;1200;103095;-73
2021/03/23 07:00:05;;;;;;;78.93;39.70;;;;;;;1.60;63.56;99005.64;114946;1200;103162;-75
2021/03/23 07:02:44;;;;;;;75.45;38.15;;;;;;;1.62;63.15;99002.08;114929;1199;103236;-75
2021/03/23 07:05:17;;;;;;;80.40;40.70;;;;;;;1.66;63.30;99010.67;115029;1199;103194;-74
2021/03/23 07:07:56;;;;;;;77.90;36.90;;;;;;;1.68;63.42;99006.22;114968;1200;103037;-77
2021/03/23 07:10:44;;;;;;;77.30;38.90;;;;;;;1.71;63.38;98995.63;114938;1199;103252;-74
2021/03/23 07:13:26;;;;;;;75.83;38.83;;;;;;;1.75;63.30;98996.34;114948;1199;103200;-74
2021/03/23 07:16:07;;;;;;;74.30;37.65;;;;;;;1.77;63.53;99000.64;114893;1200;103082;-74
2021/03/23 07:18:38;;;;;;;76.43;39.57;;;;;;;1.80;63.36;98998.81;115026;1200;103605;-75
2021/03/23 07:21:34;;;;;;;69.80;35.75;;;;;;;1.83;63.54;99002.16;114910;1200;103127;-73
2021/03/23 07:24:16;;;;;;;72.83;38.83;;;;;;;1.88;63.85;99004.60;115562;1199;101774;-76
2021/03/23 07:27:05;;;;;;;64.77;33.30;;;;;;;1.97;63.74;98992.92;114965;1199;104448;-73
2021/03/23 07:29:39;;;;;;;74.77;38.17;;;;;;;2.02;63.77;98993.60;114950;1199;103067;-75
2021/03/23 07:32:12;;;;;;;75.33;37.27;;;;;;;2.05;63.34;98993.45;115011;1200;103175;-74
2021/03/23 07:34:43;;;;;;;72.80;36.20;;;;;;;2.10;63.88;98990.67;115029;1200;103111;-73
2021/03/23 07:37:36;;;;;;;77.03;37.80;;;;;;;2.14;63.35;98998.34;115013;1199;103133;-73
2021/03/23 07:40:15;;;;;;;72.30;36.90;;;;;;;2.25;63.70;99002.33;115064;1199;103108;-74
2021/03/23 07:42:57;;;;;;;65.60;34.20;;;;;;;2.24;63.92;98998.86;115010;1199;103249;-73
2021/03/23 07:45:41;;;;;;;75.13;37.83;;;;;;;2.28;64.10;99005.67;114980;1199;103242;-73
2021/03/23 07:48:15;;;;;;;74.00;36.40;;;;;;;2.34;63.53;99007.22;115008;1198;103152;-72
2021/03/23 07:50:48;;;;;;;63.73;33.60;;;;;;;2.38;63.94;99004.39;115049;1199;103054;-73
2021/03/23 07:53:40;;;;;;;69.75;34.00;;;;;;;2.42;63.54;99006.90;115315;1200;103056;-73
2021/03/23 07:56:37;;;;;;;64.80;33.60;;;;;;;2.48;63.77;99014.53;115017;1200;103065;-74
2021/03/23 07:59:21;;;;;;;67.75;34.45;;;;;;;2.51;63.46;99012.63;115266;1200;103255;-73
2021/03/23 08:02:00;;;;;;;65.93;30.97;;;;;;;2.56;63.65;99014.21;115001;1200;103034;-74
2021/03/23 08:04:46;;;;;;;62.37;31.00;;;;;;;2.61;63.72;99013.13;115013;1200;103036;-73
2021/03/23 08:08:15;;;;;;;44.35;20.00;;;;;;;2.70;63.83;99014.52;114977;1199;102832;-74
2021/03/23 08:10:50;;;;;;;63.95;32.85;;;;;;;2.80;64.15;99007.97;114597;1203;103133;-73
2021/03/23 08:13:26;;;;;;;64.90;31.80;;;;;;;2.88;64.13;99015.52;114638;1203;103308;-74
2021/03/23 08:16:28;;;;;;;61.80;30.45;;;;;;;2.96;64.07;99012.55;114821;1200;103142;-74
2021/03/23 08:19:24;;;;;;;52.95;25.35;;;;;;;2.99;63.66;99009.80;115382;1199;103041;-73
2021/03/23 08:22:00;;;;;;;53.00;26.80;;;;;;;3.05;64.03;99009.55;115027;1199;103046;-73
2021/03/23 08:24:36;;;;;;;59.55;28.80;;;;;;;3.12;63.87;99005.73;114977;1200;103034;-73
2021/03/23 08:27:18;;;;;;;51.30;24.45;;;;;;;3.19;64.02;99002.85;114921;1199;103053;-72
2021/03/23 08:29:56;;;;;;;51.20;25.77;;;;;;;3.28;63.16;99000.66;114951;1199;103526;-73
2021/03/23 08:32:48;;;;;;;47.40;22.87;;;;;;;3.34;63.80;98996.06;115002;1200;103520;-73
2021/03/23 08:35:37;;;;;;;52.57;25.53;;;;;;;3.49;63.20;99002.41;114976;1199;103274;-72
2021/03/23 08:38:10;;;;;;;50.43;23.20;;;;;;;3.69;63.79;99004.14;114968;1200;103136;-72
2021/03/23 08:40:50;;;;;;;52.60;23.85;;;;;;;3.87;63.38;98997.18;115068;1199;103033;-72
2021/03/23 08:43:33;;;;;;;46.37;21.63;;;;;;;4.00;63.07;98987.80;115420;1199;103204;-72
2021/03/23 08:46:04;;;;;;;47.90;20.67;;;;;;;4.12;63.70;98996.89;115019;1198;103259;-73
2021/03/23 08:48:47;;;;;;;50.23;22.30;;;;;;;4.23;63.95;98995.53;114950;1199;103233;-73
2021/03/23 08:51:23;;;;;;;44.67;21.57;;;;;;;4.36;62.96;98993.99;115066;1200;103040;-73
2021/03/23 08:53:59;;;;;;;44.67;19.70;;;;;;;4.43;63.39;98987.51;115018;1199;103036;-71
2021/03/23 08:56:41;;;;;;;42.63;19.30;;;;;;;4.56;63.39;99000.09;114968;1198;103072;-72
2021/03/23 08:59:30;;;;;;;39.97;18.67;;;;;;;4.62;63.44;99000.63;114978;1199;103155;-74
2021/03/23 09:02:21;;;;;;;38.55;15.55;;;;;;;4.71;62.92;98988.77;115015;1200;103149;-73
2021/03/23 09:04:58;;;;;;;37.60;15.93;;;;;;;4.73;63.37;98992.18;114962;1199;103069;-71
2021/03/23 09:07:32;;;;;;;38.43;17.07;;;;;;;4.81;63.24;98993.59;114968;1199;103009;-71
2021/03/23 09:10:00;;;;;;;34.80;15.75;;;;;;;4.95;63.57;98988.48;114974;1200;103027;-72
2021/03/23 09:12:44;;;;;;;33.37;15.07;;;;;;;5.08;63.42;98978.16;115590;1199;103076;-72
2021/03/23 09:15:20;;;;;;;36.13;14.43;;;;;;;5.19;63.38;98973.19;114990;1198;103079;-71
2021/03/23 09:18:06;;;;;;;33.47;14.93;;;;;;;5.33;63.26;98971.59;114948;1200;103047;-72
2021/03/23 09:20:37;;;;;;;29.20;11.80;;;;;;;5.46;63.06;98972.66;115034;1198;103034;-69
2021/03/23 09:23:19;;;;;;;35.27;14.97;;;;;;;5.46;62.97;98977.93;115025;1200;103143;-72
2021/03/23 09:25:57;;;;;;;32.05;13.00;;;;;;;5.49;62.83;98972.49;115021;1199;103185;-72
2021/03/23 09:31:15;;;;;;;31.53;12.60;;;;;;;5.47;62.83;98971.72;114811;1200;103069;-69
2021/03/23 09:33:50;;;;;;;30.70;11.43;;;;;;;5.45;62.68;98970.11;115000;1199;103264;-71
2021/03/23 09:36:20;;;;;;;;;;;;;;;5.47;62.23;98962.97;115024;1204;103115;-72
2021/03/23 09:38:54;;;;;;;28.23;11.07;;;;;;;5.48;62.38;98970.79;115052;1198;103072;-71
2021/03/23 09:41:21;;;;;;;28.43;11.23;;;;;;;5.43;62.39;98966.70;115076;1199;103252;-71
2021/03/23 09:44:10;;;;;;;32.53;11.60;;;;;;;5.38;62.40;98971.36;115036;1198;103139;-70
2021/03/23 09:46:52;;;;;;;27.33;10.67;;;;;;;5.32;62.01;98962.84;114925;1198;103149;-72
2021/03/23 09:49:46;;;;;;;29.37;11.53;;;;;;;5.30;62.17;98964.70;115015;1199;103072;-72
2021/03/23 09:52:20;;;;;;;;;;;;;;;5.30;61.79;98959.42;114958;1206;103108;-73
2021/03/23 09:54:53;;;;;;;27.77;11.30;;;;;;;5.23;61.80;98960.67;114958;1200;103475;-73
2021/03/23 09:57:26;;;;;;;29.30;11.03;;;;;;;5.22;61.91;98945.79;114988;1199;103028;-73
2021/03/23 10:00:25;;;;;;;27.73;10.63;;;;;;;5.25;61.63;98945.63;114994;1200;103056;-72
2021/03/23 10:02:56;;;;;;;27.87;11.43;;;;;;;5.32;61.96;98957.56;114848;1200;103130;-72
2021/03/23 10:05:30;;;;;;;29.63;10.70;;;;;;;5.42;61.87;98957.08;114995;1199;103076;-75
2021/03/23 10:08:19;;;;;;;28.40;10.83;;;;;;;5.43;61.63;98949.07;114968;1200;103293;-74
2021/03/23 10:10:48;;;;;;;26.70;11.20;;;;;;;5.35;61.40;98952.13;114919;1199;103136;-73
2021/03/23 10:13:31;;;;;;;31.50;12.65;;;;;;;5.32;61.20;98952.28;114959;1199;103105;-74
2021/03/23 10:16:05;;;;;;;30.90;11.77;;;;;;;5.29;61.35;98954.25;114900;1200;103104;-72
2021/03/23 10:18:39;;;;;;;28.47;12.00;;;;;;;5.34;61.46;98953.06;115043;1199;103031;-72
2021/03/23 10:21:14;;;;;;;28.33;10.97;;;;;;;5.36;61.08;98938.01;115027;1199;103066;-75
2021/03/23 10:23:56;;;;;;;29.80;10.73;;;;;;;5.40;61.32;98943.13;114949;1199;103136;-71
2021/03/23 10:26:40;;;;;;;28.50;11.63;;;;;;;5.42;61.22;98942.09;115000;1200;103104;-76
2021/03/23 10:29:20;;;;;;;27.45;11.10;;;;;;;5.46;61.35;98935.72;114910;1198;103124;-74
2021/03/23 10:31:52;;;;;;;26.63;10.53;;;;;;;5.48;60.98;98925.94;114983;1200;103037;-74
2021/03/23 10:34:29;;;;;;;28.93;10.17;;;;;;;5.49;60.79;98929.45;114999;1198;103191;-74
2021/03/23 10:37:02;;;;;;;26.63;10.37;;;;;;;5.51;60.66;98940.73;114988;1198;102526;-74
2021/03/23 10:39:42;;;;;;;29.30;11.10;;;;;;;5.54;60.83;98932.66;114842;1199;103043;-75
2021/03/23 10:42:34;;;;;;;29.03;11.23;;;;;;;5.61;60.67;98925.28;114888;1199;103117;-77
2021/03/23 10:45:23;;;;;;;33.23;11.73;;;;;;;5.73;60.66;98923.75;114882;1199;103092;-74
2021/03/23 10:48:09;;;;;;;28.00;11.43;;;;;;;5.87;60.51;98926.48;114906;1200;103204;-72
2021/03/23 10:50:40;;;;;;;30.20;11.77;;;;;;;6.04;60.71;98936.13;114839;1200;103513;-72
2021/03/23 10:53:09;;;;;;;31.40;12.03;;;;;;;6.08;60.27;98929.75;114688;1198;102999;-73
2021/03/23 10:55:41;;;;;;;24.77;10.40;;;;;;;6.18;60.50;98937.99;114705;1199;103216;-73
2021/03/23 10:58:29;;;;;;;32.57;12.70;;;;;;;6.30;60.64;98933.79;114789;1199;103217;-75
2021/03/23 11:01:21;;;;;;;29.47;11.53;;;;;;;6.42;60.40;98934.88;114729;1199;103178;-73
2021/03/23 11:03:52;;;;;;;26.13;9.73;;;;;;;6.50;60.09;98923.88;114725;1199;103525;-75
2021/03/23 11:06:36;;;;;;;26.77;9.67;;;;;;;6.58;59.95;98921.61;114796;1199;103239;-74
2021/03/23 11:09:08;;;;;;;22.87;8.53;;;;;;;6.66;60.17;98911.45;114795;1199;103162;-74
2021/03/23 11:11:36;;;;;;;25.37;9.33;;;;;;;6.77;60.02;98916.09;114947;1199;103166;-75
2021/03/23 11:14:04;;;;;;;28.15;9.95;;;;;;;6.95;59.91;98923.88;114850;1200;103060;-74
2021/03/23 11:16:35;;;;;;;26.30;10.60;;;;;;;7.10;60.10;98928.25;114832;1200;103076;-74
2021/03/23 11:19:18;;;;;;;26.63;9.93;;;;;;;7.25;60.01;98910.59;114829;1199;103085;-71
2021/03/23 11:21:46;;;;;;;27.40;11.15;;;;;;;7.37;60.22;98911.62;114766;1200;103146;-69
2021/03/23 11:24:13;;;;;;;39.77;20.53;;;;;;;7.49;60.17;98909.16;114874;1200;103144;-73
2021/03/23 11:26:44;;;;;;;29.90;12.30;;;;;;;7.63;60.01;98913.58;114837;1200;103229;-73
2021/03/23 11:29:14;;;;;;;30.33;11.73;;;;;;;7.69;59.69;98914.03;114783;1199;103031;-73
2021/03/23 11:31:41;;;;;;;28.50;11.23;;;;;;;7.86;59.70;98917.42;114882;1200;103136;-70
2021/03/23 11:34:09;;;;;;;29.80;11.03;;;;;;;7.89;59.70;98906.63;114894;1200;103619;-71
2021/03/23 11:36:39;;;;;;;25.63;9.93;;;;;;;7.98;59.46;98916.61;114806;1198;103203;-70
2021/03/23 11:39:13;;;;;;;29.30;10.40;;;;;;;7.95;59.29;98929.21;114757;1200;103123;-71
2021/03/23 11:41:54;;;;;;;26.07;8.57;;;;;;;7.78;58.76;98907.30;114794;1199;103060;-72
2021/03/23 11:44:28;;;;;;;23.53;9.13;;;;;;;7.63;59.08;98925.00;114913;1199;103112;-71
2021/03/23 11:47:08;;;;;;;21.65;8.20;;;;;;;7.59;58.78;98908.48;114779;1199;103130;-72
2021/03/23 11:49:42;;;;;;;23.67;8.80;;;;;;;7.57;58.96;98918.31;114903;1199;104198;-71
2021/03/23 11:52:12;;;;;;;22.23;8.27;;;;;;;7.58;58.88;98904.13;114910;1199;103027;-74